Time;durP1;ratioP1;P1;durP2;ratioP2;P2;SDS_P1;SDS_P2;PMS_P1;PMS_P2;Temp;Humidity;BMP_temperature;BMP_pressure;BME280_temperature;BME280_humidity;BME280_pressure;Samples;Min_cycle;Max_cycle;Signal;HPM_P1;HPM_P2
2021/10/22 00:00:34;;;;;;;1.43;0.80;;;;;;;5.98;100.00;96100.34;5014134;28;20041;-74
2021/10/22 00:03:00;;;;;;;1.93;0.80;;;;;;;5.94;100.00;96102.41;5036638;28;20025;-74
2021/10/22 00:05:25;;;;;;;2.97;0.90;;;;;;;5.88;100.00;96108.94;5037001;28;20045;-75
2021/10/22 00:07:51;;;;;;;1.27;0.50;;;;;;;5.95;100.00;96108.44;5030963;28;20033;-74
2021/10/22 00:10:17;;;;;;;1.17;0.67;;;;;;;5.93;100.00;96108.56;5035791;28;20048;-74
2021/10/22 00:12:42;;;;;;;1.30;0.60;;;;;;;5.80;100.00;96124.44;5042223;28;20037;-75
2021/10/22 00:15:09;;;;;;;2.67;0.63;;;;;;;5.83;100.00;96128.53;5038200;28;20076;-75
2021/10/22 00:17:37;;;;;;;1.10;0.60;;;;;;;5.76;100.00;96123.03;5032342;28;20517;-75
2021/10/22 00:20:06;;;;;;;3.10;0.80;;;;;;;5.77;100.00;96127.31;5032403;28;20819;-74
2021/10/22 00:22:32;;;;;;;1.63;0.73;;;;;;;5.83;100.00;96133.75;5037566;28;20024;-75
2021/10/22 00:24:58;;;;;;;1.23;0.50;;;;;;;5.76;100.00;96125.63;5038052;28;20037;-75
2021/10/22 00:27:24;;;;;;;2.50;0.80;;;;;;;5.76;100.00;96130.84;5027652;28;20083;-74
2021/10/22 00:29:49;;;;;;;1.53;0.73;;;;;;;5.67;100.00;96139.50;5034670;28;20043;-75
2021/10/22 00:32:15;;;;;;;2.37;0.77;;;;;;;5.64;100.00;96139.75;5013639;28;20029;-75
2021/10/22 00:34:41;;;;;;;2.70;0.60;;;;;;;5.74;100.00;96134.56;5038184;28;20138;-74
2021/10/22 00:37:06;;;;;;;3.90;1.20;;;;;;;5.70;100.00;96139.25;5035137;28;20036;-75
2021/10/22 00:39:32;;;;;;;2.73;0.97;;;;;;;5.70;100.00;96141.00;5033246;28;20079;-75
2021/10/22 00:41:59;;;;;;;3.63;0.90;;;;;;;5.66;100.00;96154.31;5033807;28;20039;-74
2021/10/22 00:44:25;;;;;;;3.10;1.00;;;;;;;5.62;100.00;96146.88;5036454;28;20035;-74
2021/10/22 00:46:54;;;;;;;1.30;0.97;;;;;;;5.60;100.00;96151.38;5039409;28;20451;-74
2021/10/22 00:49:21;;;;;;;3.97;1.00;;;;;;;5.68;100.00;96152.41;5037665;28;20109;-75
2021/10/22 00:51:48;;;;;;;4.00;1.27;;;;;;;5.57;100.00;96146.47;5050662;28;20033;-74
2021/10/22 00:54:14;;;;;;;2.67;1.43;;;;;;;5.58;100.00;96148.09;5029336;28;20029;-74
2021/10/22 00:56:40;;;;;;;4.90;1.73;;;;;;;5.60;100.00;96143.56;5038446;28;20102;-74
2021/10/22 00:59:06;;;;;;;3.10;1.30;;;;;;;5.54;100.00;96152.75;5034047;28;20033;-75
2021/10/22 01:01:40;;;;;;;4.43;1.80;;;;;;;5.56;100.00;96160.44;5028376;28;20513;-74
2021/10/22 01:04:07;;;;;;;4.13;1.70;;;;;;;5.52;100.00;96159.88;5035392;28;20603;-75
2021/10/22 01:06:38;;;;;;;5.77;1.90;;;;;;;5.52;100.00;96167.69;5033179;28;20027;-75
2021/10/22 01:09:08;;;;;;;5.50;2.17;;;;;;;5.39;100.00;96164.47;5036965;28;20064;-74
2021/10/22 01:11:35;;;;;;;4.37;1.73;;;;;;;5.47;100.00;96166.44;5033116;28;20037;-75
2021/10/22 01:14:05;;;;;;;3.77;1.53;;;;;;;5.40;100.00;96163.53;5036863;28;20022;-74
2021/10/22 01:16:31;;;;;;;4.13;1.73;;;;;;;5.40;100.00;96171.34;5034449;28;20383;-74
2021/10/22 01:18:57;;;;;;;4.07;1.90;;;;;;;5.30;100.00;96179.13;5023867;28;20772;-74
2021/10/22 01:21:23;;;;;;;3.60;1.50;;;;;;;5.28;100.00;96173.19;5039914;28;20023;-74
2021/10/22 01:23:50;;;;;;;6.33;2.30;;;;;;;5.39;100.00;96186.16;5044880;28;20024;-75
2021/10/22 01:26:18;;;;;;;3.33;1.97;;;;;;;5.34;100.00;96183.13;5033216;28;20930;-74
2021/10/22 01:28:44;;;;;;;8.00;2.50;;;;;;;5.27;100.00;96181.16;5028652;28;20086;-75
2021/10/22 01:31:10;;;;;;;5.37;2.50;;;;;;;5.27;100.00;96181.97;5011073;28;20376;-74
2021/10/22 01:33:39;;;;;;;5.37;2.40;;;;;;;5.27;100.00;96181.16;5045737;28;20032;-74
2021/10/22 01:36:05;;;;;;;6.03;2.80;;;;;;;5.30;100.00;96181.72;5010637;28;20118;-74
2021/10/22 01:38:31;;;;;;;5.57;2.33;;;;;;;5.24;100.00;96184.84;5019851;28;20485;-74
2021/10/22 01:40:58;;;;;;;5.73;2.87;;;;;;;5.28;100.00;96180.19;5033803;28;20064;-74
2021/10/22 01:43:26;;;;;;;5.63;2.90;;;;;;;5.30;100.00;96173.06;5016635;28;20017;-74
2021/10/22 01:45:52;;;;;;;6.37;2.97;;;;;;;5.32;100.00;96169.38;5035158;28;20040;-75
2021/10/22 01:48:19;;;;;;;6.70;2.77;;;;;;;5.34;100.00;96161.44;5032254;28;20121;-75
2021/10/22 01:50:45;;;;;;;5.80;2.87;;;;;;;5.35;100.00;96168.28;5024044;28;20036;-74
2021/10/22 01:53:14;;;;;;;6.13;2.93;;;;;;;5.37;100.00;96167.22;5023691;28;20364;-75
2021/10/22 01:55:41;;;;;;;6.20;2.40;;;;;;;5.24;100.00;96168.38;5024455;28;20041;-75
2021/10/22 01:58:07;;;;;;;7.17;2.90;;;;;;;5.25;100.00;96176.06;5070019;28;20474;-74
2021/10/22 02:00:33;;;;;;;7.43;3.80;;;;;;;5.15;100.00;96172.56;5035808;28;20033;-75
2021/10/22 02:02:58;;;;;;;8.83;2.80;;;;;;;5.23;100.00;96172.78;5023006;28;20041;-74
2021/10/22 02:05:24;;;;;;;5.17;2.30;;;;;;;5.30;100.00;96176.50;5026877;28;20044;-74
2021/10/22 02:07:50;;;;;;;5.90;2.70;;;;;;;5.31;100.00;96178.16;5035282;28;20033;-75
2021/10/22 02:10:15;;;;;;;9.73;3.03;;;;;;;5.31;100.00;96177.34;5043964;28;20048;-74
2021/10/22 02:12:41;;;;;;;6.93;2.97;;;;;;;5.27;100.00;96171.56;5033465;28;20021;-74
2021/10/22 02:15:08;;;;;;;5.23;2.77;;;;;;;5.22;100.00;96173.69;5042459;28;20089;-74
2021/10/22 02:17:34;;;;;;;10.80;2.83;;;;;;;5.24;100.00;96177.00;5032937;28;20678;-74
2021/10/22 02:20:00;;;;;;;5.70;2.90;;;;;;;5.16;100.00;96171.59;5031783;28;20115;-74
2021/10/22 02:22:27;;;;;;;11.53;3.47;;;;;;;4.98;100.00;96181.78;5044234;28;20435;-74
2021/10/22 02:24:53;;;;;;;9.50;3.10;;;;;;;5.12;100.00;96172.81;5030387;28;20040;-74
2021/10/22 02:27:18;;;;;;;9.60;3.37;;;;;;;5.08;100.00;96177.44;5029150;28;20037;-74
2021/10/22 02:29:44;;;;;;;6.63;3.00;;;;;;;5.12;100.00;96183.25;5038638;28;20113;-74
2021/10/22 02:32:10;;;;;;;9.93;3.13;;;;;;;5.11;100.00;96189.41;5042741;28;20025;-74
2021/10/22 02:34:35;;;;;;;4.03;2.17;;;;;;;5.11;100.00;96194.63;5041735;28;20490;-74
2021/10/22 02:37:01;;;;;;;8.77;3.27;;;;;;;5.11;100.00;96197.22;5041388;28;20041;-74
2021/10/22 02:39:32;;;;;;;6.13;2.80;;;;;;;5.00;100.00;96200.72;5041558;28;20033;-74
2021/10/22 02:42:00;;;;;;;7.30;2.83;;;;;;;4.91;100.00;96202.28;5040572;28;20522;-75
2021/10/22 02:44:27;;;;;;;10.00;3.60;;;;;;;4.97;100.00;96196.59;5061684;28;20032;-74
2021/10/22 02:46:55;;;;;;;10.20;3.63;;;;;;;5.01;100.00;96191.13;5023600;28;20037;-74
2021/10/22 02:49:20;;;;;;;7.40;3.20;;;;;;;4.90;100.00;96192.00;5041752;28;20482;-74
2021/10/22 02:51:47;;;;;;;12.70;3.93;;;;;;;4.90;100.00;96200.66;5037383;28;20037;-74
2021/10/22 02:54:12;;;;;;;11.03;4.10;;;;;;;4.93;100.00;96191.75;5042098;28;20017;-74
2021/10/22 02:56:38;;;;;;;15.67;5.23;;;;;;;4.95;100.00;96195.06;5033207;28;20036;-74
2021/10/22 02:59:04;;;;;;;11.60;3.77;;;;;;;4.92;100.00;96193.50;5040660;28;20458;-74
2021/10/22 03:01:29;;;;;;;13.00;3.80;;;;;;;4.93;100.00;96195.19;5035262;28;20562;-74
2021/10/22 03:03:55;;;;;;;10.87;3.37;;;;;;;4.92;100.00;96198.72;5033290;28;20040;-74
2021/10/22 03:06:21;;;;;;;13.70;3.80;;;;;;;4.96;100.00;96200.16;5036237;28;20556;-74
2021/10/22 03:08:47;;;;;;;10.60;3.23;;;;;;;4.91;100.00;96212.72;5037571;28;20036;-74
2021/10/22 03:11:13;;;;;;;11.30;3.83;;;;;;;4.93;100.00;96210.00;5034674;28;20039;-74
2021/10/22 03:13:38;;;;;;;10.03;3.43;;;;;;;4.96;100.00;96210.56;5038606;28;20718;-74
2021/10/22 03:16:04;;;;;;;12.23;4.40;;;;;;;4.82;100.00;96207.44;5034285;28;20171;-75
2021/10/22 03:18:30;;;;;;;14.53;3.77;;;;;;;4.79;100.00;96213.69;5034084;28;20037;-75
2021/10/22 03:20:56;;;;;;;8.17;3.17;;;;;;;4.90;100.00;96216.28;5031689;28;20040;-74
2021/10/22 03:23:22;;;;;;;10.10;3.80;;;;;;;4.78;100.00;96209.44;5045477;28;20021;-74
2021/10/22 03:25:49;;;;;;;13.33;3.13;;;;;;;4.78;100.00;96213.84;5055682;28;20034;-74
2021/10/22 03:28:15;;;;;;;11.07;4.03;;;;;;;4.68;100.00;96213.75;5029677;28;20045;-74
2021/10/22 03:30:41;;;;;;;12.30;3.27;;;;;;;4.63;100.00;96219.34;5042812;28;20111;-74
2021/10/22 03:33:07;;;;;;;14.23;4.20;;;;;;;4.60;100.00;96213.56;5034435;28;20490;-75
2021/10/22 03:35:33;;;;;;;12.87;3.67;;;;;;;4.58;100.00;96215.44;5030443;28;20425;-74
2021/10/22 03:37:59;;;;;;;11.90;4.57;;;;;;;4.52;100.00;96215.91;5032764;28;20049;-74
2021/10/22 03:40:25;;;;;;;11.10;4.03;;;;;;;4.40;100.00;96223.78;5034814;28;20033;-74
2021/10/22 03:42:55;;;;;;;12.17;4.03;;;;;;;4.48;100.00;96220.56;5037847;28;20051;-74
2021/10/22 03:45:21;;;;;;;12.27;4.03;;;;;;;4.45;100.00;96220.78;5028024;28;20033;-74
2021/10/22 03:47:47;;;;;;;10.83;2.90;;;;;;;4.38;100.00;96230.03;5075838;28;20017;-74
2021/10/22 03:50:13;;;;;;;11.80;3.30;;;;;;;4.34;100.00;96229.47;5041493;28;20072;-74
2021/10/22 03:52:40;;;;;;;11.67;3.80;;;;;;;4.22;100.00;96233.84;5040560;28;20066;-74
2021/10/22 03:55:06;;;;;;;10.80;3.03;;;;;;;4.17;100.00;96232.56;5027889;28;20029;-75
2021/10/22 03:57:32;;;;;;;11.33;3.50;;;;;;;4.13;100.00;96231.97;5038134;28;20367;-74
2021/10/22 03:59:58;;;;;;;10.20;3.27;;;;;;;4.09;100.00;96230.56;5019017;28;20044;-74
2021/10/22 04:02:23;;;;;;;8.50;4.17;;;;;;;4.06;100.00;96236.00;5035464;28;20026;-74
2021/10/22 04:04:49;;;;;;;7.07;3.20;;;;;;;3.98;100.00;96236.56;5065688;28;20076;-74
2021/10/22 04:07:15;;;;;;;10.33;3.63;;;;;;;3.97;100.00;96245.34;5065640;28;20021;-75
2021/10/22 04:09:41;;;;;;;11.70;3.70;;;;;;;3.91;100.00;96243.19;5034614;28;20056;-74
2021/10/22 04:12:07;;;;;;;10.70;3.43;;;;;;;3.91;100.00;96253.59;5038555;28;20064;-74
2021/10/22 04:14:34;;;;;;;10.97;3.17;;;;;;;3.86;100.00;96254.94;5038415;28;20055;-74
2021/10/22 04:16:59;;;;;;;9.63;3.50;;;;;;;3.77;100.00;96253.84;5025799;28;20034;-74
2021/10/22 04:19:25;;;;;;;11.63;4.70;;;;;;;3.77;100.00;96256.44;5037501;28;20055;-74
2021/10/22 04:21:52;;;;;;;9.10;3.50;;;;;;;3.65;100.00;96255.59;5025672;28;20044;-74
2021/10/22 04:24:19;;;;;;;9.77;4.80;;;;;;;3.56;100.00;96255.47;5027184;28;20041;-74
2021/10/22 04:26:45;;;;;;;10.13;3.60;;;;;;;3.45;100.00;96259.69;5027537;28;20030;-73
2021/10/22 04:29:12;;;;;;;29.47;13.67;;;;;;;3.34;100.00;96254.47;5026258;28;20410;-74
2021/10/22 04:31:39;;;;;;;34.60;20.83;;;;;;;3.33;100.00;96255.41;5041010;28;20048;-74
2021/10/22 04:34:05;;;;;;;14.57;7.13;;;;;;;3.29;100.00;96256.59;5032488;28;20099;-74
2021/10/22 04:36:31;;;;;;;14.33;6.17;;;;;;;3.29;100.00;96261.78;5014685;28;20025;-73
2021/10/22 04:41:41;;;;;;;9.00;3.27;;;;;;;3.15;100.00;96259.38;5037658;28;20031;-74
2021/10/22 04:44:07;;;;;;;9.77;3.97;;;;;;;3.17;100.00;96260.09;5037881;28;20029;-74
2021/10/22 04:46:33;;;;;;;10.83;3.70;;;;;;;3.19;100.00;96269.44;5025173;28;20099;-74
2021/10/22 04:48:58;;;;;;;8.03;3.90;;;;;;;3.15;100.00;96272.34;5012568;28;20433;-74
2021/10/22 04:51:24;;;;;;;11.50;4.00;;;;;;;3.16;100.00;96268.84;5031546;28;20059;-74
2021/10/22 04:53:50;;;;;;;11.30;4.20;;;;;;;3.14;100.00;96270.72;5032761;28;20082;-74
2021/10/22 04:56:16;;;;;;;12.07;4.70;;;;;;;3.10;100.00;96271.88;5033363;28;20442;-74
2021/10/22 04:58:45;;;;;;;16.47;5.07;;;;;;;3.13;100.00;96266.47;5025543;28;20024;-75
2021/10/22 05:01:11;;;;;;;15.00;3.80;;;;;;;3.07;100.00;96270.34;5030207;28;20026;-74
2021/10/22 05:03:36;;;;;;;13.73;3.77;;;;;;;3.09;100.00;96265.03;5014256;28;20479;-74
2021/10/22 05:06:02;;;;;;;15.13;4.07;;;;;;;3.14;100.00;96268.13;5024670;28;20037;-74
2021/10/22 05:08:28;;;;;;;12.47;3.70;;;;;;;3.06;100.00;96277.31;5029804;28;20032;-74
2021/10/22 05:10:54;;;;;;;21.90;7.63;;;;;;;3.02;100.00;96278.47;5029795;28;20033;-74
2021/10/22 05:13:20;;;;;;;22.90;13.03;;;;;;;3.07;100.00;96268.56;5030016;28;20079;-74
2021/10/22 05:15:46;;;;;;;12.47;4.80;;;;;;;3.03;100.00;96264.53;5024691;28;20040;-74
2021/10/22 05:18:12;;;;;;;11.63;4.13;;;;;;;3.09;100.00;96265.88;5037403;28;20033;-74
2021/10/22 05:20:38;;;;;;;13.80;4.23;;;;;;;2.96;100.00;96263.31;5034520;28;20110;-75
2021/10/22 05:23:04;;;;;;;13.43;3.43;;;;;;;3.00;100.00;96258.72;5032168;28;20083;-73
2021/10/22 05:25:30;;;;;;;13.03;4.07;;;;;;;2.99;100.00;96270.91;5035360;28;20116;-74
2021/10/22 05:27:55;;;;;;;17.90;5.60;;;;;;;2.96;100.00;96280.69;5031325;28;20117;-75
2021/10/22 05:30:21;;;;;;;15.27;3.93;;;;;;;2.95;100.00;96271.22;5038789;28;20029;-74
2021/10/22 05:32:47;;;;;;;15.30;4.23;;;;;;;2.94;100.00;96272.16;5031269;28;20455;-74
2021/10/22 05:35:13;;;;;;;12.97;4.00;;;;;;;2.96;100.00;96265.09;5013962;28;20032;-75
2021/10/22 05:37:39;;;;;;;8.83;3.80;;;;;;;2.90;100.00;96275.94;5032962;28;20036;-76
2021/10/22 05:40:06;;;;;;;12.90;4.07;;;;;;;2.91;100.00;96264.59;5036284;28;20107;-75
2021/10/22 05:42:31;;;;;;;18.83;6.93;;;;;;;2.93;100.00;96271.34;5031218;28;20036;-74
2021/10/22 05:44:57;;;;;;;10.80;4.70;;;;;;;2.96;100.00;96273.72;5019936;28;20034;-75
2021/10/22 05:47:23;;;;;;;16.97;7.57;;;;;;;3.04;100.00;96279.16;5039025;28;20025;-75
2021/10/22 05:49:49;;;;;;;17.07;7.57;;;;;;;3.01;100.00;96288.97;5016088;28;20034;-76
2021/10/22 05:52:16;;;;;;;13.83;5.97;;;;;;;3.14;100.00;96275.91;5025303;28;20498;-75
2021/10/22 05:54:45;;;;;;;15.80;5.83;;;;;;;3.23;100.00;96277.84;5035332;28;20040;-74
2021/10/22 05:57:11;;;;;;;23.30;8.40;;;;;;;3.12;100.00;96277.78;5061027;28;20036;-75
2021/10/22 05:59:37;;;;;;;19.80;8.67;;;;;;;3.23;100.00;96285.63;5032912;28;20029;-74
2021/10/22 06:02:02;;;;;;;21.57;9.13;;;;;;;3.09;100.00;96291.84;5023881;28;20117;-74
2021/10/22 06:04:28;;;;;;;29.30;9.77;;;;;;;3.15;100.00;96293.16;5027206;28;20041;-74
2021/10/22 06:06:54;;;;;;;22.10;9.00;;;;;;;3.19;100.00;96295.44;5026097;28;20044;-74
2021/10/22 06:09:20;;;;;;;20.43;8.57;;;;;;;3.09;100.00;96299.63;5039512;28;20130;-74
2021/10/22 06:11:49;;;;;;;21.67;9.63;;;;;;;3.19;100.00;96299.81;5038594;28;20665;-74
2021/10/22 06:14:16;;;;;;;22.00;8.40;;;;;;;3.21;100.00;96296.13;5051359;28;20057;-74
2021/10/22 06:16:42;;;;;;;23.10;9.70;;;;;;;3.20;100.00;96304.88;5037403;28;20016;-74
2021/10/22 06:19:11;;;;;;;23.90;10.73;;;;;;;3.28;100.00;96304.31;5032290;28;20402;-73
2021/10/22 06:21:54;;;;;;;22.13;9.57;;;;;;;3.30;100.00;96310.22;5009586;28;20502;-74
2021/10/22 06:24:20;;;;;;;29.13;10.53;;;;;;;3.24;100.00;96305.47;5014179;28;20040;-74
2021/10/22 06:26:46;;;;;;;23.10;10.97;;;;;;;3.23;100.00;96304.66;5039593;28;20534;-74
2021/10/22 06:29:13;;;;;;;20.87;9.00;;;;;;;3.26;100.00;96320.03;5031570;28;20056;-76
2021/10/22 06:31:41;;;;;;;21.67;9.97;;;;;;;3.29;100.00;96317.19;5035963;28;20036;-74
2021/10/22 06:34:08;;;;;;;19.33;8.63;;;;;;;3.29;100.00;96321.56;5010155;28;20122;-75
2021/10/22 06:36:34;;;;;;;23.40;10.60;;;;;;;3.41;100.00;96328.47;5009485;28;20052;-75
2021/10/22 06:39:01;;;;;;;25.77;9.80;;;;;;;3.39;100.00;96334.72;5037581;28;20028;-74
2021/10/22 06:41:26;;;;;;;20.10;9.53;;;;;;;3.44;100.00;96333.44;5029551;28;20057;-74
2021/10/22 06:43:54;;;;;;;21.87;9.77;;;;;;;3.48;100.00;96339.22;5050748;28;20032;-74
2021/10/22 06:46:20;;;;;;;16.07;8.43;;;;;;;3.50;100.00;96353.78;5032807;28;20025;-75
2021/10/22 06:48:47;;;;;;;16.97;8.27;;;;;;;3.65;100.00;96348.38;5034382;28;20386;-75
2021/10/22 06:51:15;;;;;;;18.70;8.63;;;;;;;3.72;100.00;96352.19;5031789;28;20020;-75
2021/10/22 06:53:43;;;;;;;24.20;9.37;;;;;;;3.70;100.00;96344.50;5033155;28;20429;-74
2021/10/22 06:56:09;;;;;;;20.40;9.67;;;;;;;3.89;100.00;96353.53;5029764;28;20682;-75
2021/10/22 06:58:34;;;;;;;19.87;8.03;;;;;;;3.99;100.00;96362.28;5031479;28;20075;-75
2021/10/22 07:01:01;;;;;;;15.60;7.40;;;;;;;4.03;100.00;96361.16;5036385;28;20534;-75
2021/10/22 07:03:28;;;;;;;22.97;7.27;;;;;;;4.03;100.00;96368.13;5027471;28;20048;-75
2021/10/22 07:08:25;;;;;;;16.40;7.40;;;;;;;4.19;100.00;96366.84;5034428;28;20037;-75
2021/10/22 07:10:51;;;;;;;14.17;5.83;;;;;;;4.20;100.00;96372.88;5038330;28;20033;-75
2021/10/22 07:13:17;;;;;;;20.87;6.63;;;;;;;4.13;100.00;96379.50;5040822;28;20116;-74
2021/10/22 07:15:43;;;;;;;24.83;6.73;;;;;;;4.18;100.00;96378.19;5025823;28;20056;-75
2021/10/22 07:18:10;;;;;;;17.00;7.40;;;;;;;4.23;100.00;96383.88;5028328;28;20037;-74
2021/10/22 07:20:36;;;;;;;14.10;5.50;;;;;;;4.26;100.00;96385.44;5030766;28;20704;-74
2021/10/22 07:23:06;;;;;;;16.27;6.63;;;;;;;4.32;100.00;96392.75;5037253;28;20125;-74
2021/10/22 07:25:33;;;;;;;17.87;6.57;;;;;;;4.39;100.00;96403.53;5037611;28;20386;-74
2021/10/22 07:28:07;;;;;;;15.03;6.43;;;;;;;4.37;100.00;96401.06;5017293;28;20347;-74
2021/10/22 07:30:33;;;;;;;15.00;6.20;;;;;;;4.39;100.00;96411.34;5031614;28;20099;-74
2021/10/22 07:32:59;;;;;;;12.43;6.40;;;;;;;4.49;100.00;96414.91;5024155;28;20029;-74
2021/10/22 07:35:25;;;;;;;14.93;4.73;;;;;;;4.39;100.00;96417.41;5024367;28;20130;-75
2021/10/22 07:37:51;;;;;;;16.57;5.70;;;;;;;4.55;100.00;96419.66;5034338;28;20028;-74
2021/10/22 07:40:17;;;;;;;14.63;6.33;;;;;;;4.66;100.00;96424.03;5026443;28;20573;-74
2021/10/22 07:42:42;;;;;;;14.70;5.20;;;;;;;4.81;100.00;96422.84;5029001;28;20021;-75
2021/10/22 07:45:09;;;;;;;13.93;4.93;;;;;;;4.74;100.00;96432.09;5034671;28;20422;-75
2021/10/22 07:47:35;;;;;;;15.00;4.83;;;;;;;5.31;100.00;96432.88;5012671;28;20036;-74
2021/10/22 07:50:05;;;;;;;15.07;4.90;;;;;;;6.21;100.00;96425.56;5025297;28;20053;-75
2021/10/22 07:52:31;;;;;;;14.60;4.53;;;;;;;6.85;100.00;96437.59;5046975;28;20508;-74
2021/10/22 07:54:59;;;;;;;12.07;4.13;;;;;;;6.24;100.00;96438.38;5034395;28;20029;-74
2021/10/22 07:57:32;;;;;;;16.73;4.37;;;;;;;6.27;100.00;96437.25;5033573;28;20042;-74
2021/10/22 07:59:58;;;;;;;13.07;3.83;;;;;;;6.59;100.00;96430.16;5042475;28;20033;-74
2021/10/22 08:02:25;;;;;;;10.70;4.37;;;;;;;6.68;100.00;96435.59;5031067;28;20025;-74
2021/10/22 08:04:51;;;;;;;15.60;4.93;;;;;;;6.43;100.00;96442.03;5011807;28;20033;-74
2021/10/22 08:07:22;;;;;;;12.90;4.03;;;;;;;6.71;100.00;96445.78;5023679;28;20497;-74
2021/10/22 08:09:49;;;;;;;17.80;3.70;;;;;;;7.02;100.00;96441.38;5033464;28;20112;-74
2021/10/22 08:12:15;;;;;;;12.53;3.33;;;;;;;7.79;100.00;96446.78;5041512;28;20068;-74
2021/10/22 08:14:42;;;;;;;16.30;3.27;;;;;;;8.01;97.11;96450.06;5036415;28;20407;-74
2021/10/22 08:17:11;;;;;;;11.77;2.60;;;;;;;8.57;95.55;96443.31;5024763;28;20045;-74
2021/10/22 08:19:37;;;;;;;11.97;2.87;;;;;;;9.01;91.72;96441.78;5035599;28;20674;-74
2021/10/22 08:24:35;;;;;;;13.13;2.73;;;;;;;9.83;87.19;96442.72;5024651;28;20030;-74
2021/10/22 08:27:01;;;;;;;12.93;3.00;;;;;;;9.95;86.23;96452.00;5041188;28;20041;-74
2021/10/22 08:29:27;;;;;;;11.47;2.80;;;;;;;9.51;86.42;96444.00;5039880;28;20032;-74
2021/10/22 08:31:53;;;;;;;15.17;3.90;;;;;;;9.77;86.73;96446.75;5036705;28;20041;-74
2021/10/22 08:34:20;;;;;;;12.00;2.73;;;;;;;10.35;85.50;96438.41;5018489;28;20514;-74
2021/10/22 08:36:46;;;;;;;13.47;3.20;;;;;;;10.37;85.28;96435.66;5007881;28;20116;-74
2021/10/22 08:39:12;;;;;;;7.63;2.77;;;;;;;10.76;83.29;96437.88;5016208;28;20498;-74
2021/10/22 08:41:39;;;;;;;9.47;2.80;;;;;;;10.79;82.88;96438.38;5032105;28;20036;-74
2021/10/22 08:44:07;;;;;;;11.53;3.17;;;;;;;11.24;82.86;96441.75;5027381;28;20041;-75
2021/10/22 08:46:32;;;;;;;12.47;2.80;;;;;;;10.99;81.00;96441.63;5030539;28;20124;-74
2021/10/22 08:48:59;;;;;;;12.13;3.47;;;;;;;11.12;79.19;96440.38;5040607;28;20107;-74
2021/10/22 08:51:26;;;;;;;10.20;3.27;;;;;;;10.94;79.59;96443.91;5040030;28;20534;-74
2021/10/22 08:53:52;;;;;;;12.67;3.43;;;;;;;10.82;79.21;96437.25;5032324;28;20033;-74
2021/10/22 08:56:22;;;;;;;8.63;2.03;;;;;;;10.32;76.93;96448.41;5027601;28;20037;-75
2021/10/22 08:58:47;;;;;;;14.23;2.90;;;;;;;9.98;77.75;96451.72;5026779;28;20025;-75
2021/10/22 09:01:14;;;;;;;13.40;2.70;;;;;;;9.39;80.50;96456.53;5009773;28;20056;-74
2021/10/22 09:03:40;;;;;;;11.20;2.57;;;;;;;9.26;83.57;96460.47;5024790;28;20021;-74
2021/10/22 09:06:14;;;;;;;12.63;2.17;;;;;;;9.23;81.78;96450.25;5025970;28;20037;-74
2021/10/22 09:08:45;;;;;;;13.13;3.30;;;;;;;8.74;80.05;96455.66;5013445;28;20025;-74
2021/10/22 09:11:24;;;;;;;8.60;1.90;;;;;;;9.28;79.47;96454.06;5059775;28;20029;-74
2021/10/22 09:14:05;;;;;;;12.03;2.37;;;;;;;9.60;77.39;96453.63;5028994;28;20032;-74
2021/10/22 09:16:31;;;;;;;9.70;2.10;;;;;;;9.85;76.52;96446.00;5025037;28;20688;-75
2021/10/22 09:18:58;;;;;;;9.00;1.63;;;;;;;10.38;74.74;96448.63;5029922;28;20759;-75
2021/10/22 09:21:26;;;;;;;9.70;3.03;;;;;;;10.05;73.84;96444.88;5035942;28;20043;-75
2021/10/22 09:24:16;;;;;;;13.87;2.23;;;;;;;9.69;75.32;96457.16;5031927;28;20390;-74
2021/10/22 09:26:55;;;;;;;12.80;3.87;;;;;;;10.21;72.64;96451.25;5022943;28;20033;-74
2021/10/22 09:29:23;;;;;;;10.50;1.67;;;;;;;10.12;71.99;96452.97;5036982;28;20033;-74
2021/10/22 09:31:51;;;;;;;9.53;2.30;;;;;;;10.17;72.79;96449.91;5033112;28;20037;-74
2021/10/22 09:34:32;;;;;;;12.43;2.17;;;;;;;10.14;70.55;96446.59;5027902;28;20093;-74
2021/10/22 09:37:00;;;;;;;12.20;2.37;;;;;;;10.17;72.36;96444.66;5038999;28;20060;-74
2021/10/22 09:39:36;;;;;;;7.50;2.23;;;;;;;10.61;69.29;96456.84;5031944;28;20129;-74
2021/10/22 09:42:03;;;;;;;8.53;2.30;;;;;;;11.21;68.18;96461.31;5041980;28;20045;-74
2021/10/22 09:44:30;;;;;;;12.93;2.27;;;;;;;11.62;69.20;96463.28;5028523;28;20025;-74
2021/10/22 09:47:19;;;;;;;11.80;2.07;;;;;;;10.42;68.64;96467.56;5036699;28;20136;-75
2021/10/22 09:49:50;;;;;;;8.23;1.83;;;;;;;10.51;66.72;96460.56;5037827;28;20072;-74
2021/10/22 09:52:27;;;;;;;7.87;1.53;;;;;;;10.63;67.61;96461.97;5013409;28;20083;-74
2021/10/22 09:55:12;;;;;;;10.30;1.77;;;;;;;10.42;67.02;96459.66;5030993;28;20037;-74
2021/10/22 09:57:43;;;;;;;12.53;2.43;;;;;;;10.76;65.26;96467.63;5030234;28;20041;-74
2021/10/22 10:00:12;;;;;;;6.90;1.70;;;;;;;10.78;66.24;96467.50;5023539;28;20034;-74
2021/10/22 10:02:40;;;;;;;7.23;1.93;;;;;;;11.61;63.75;96472.19;5031535;28;20013;-74
2021/10/22 10:05:08;;;;;;;9.87;2.33;;;;;;;11.43;63.26;96470.44;5031420;28;20060;-75
2021/10/22 10:07:37;;;;;;;12.40;2.10;;;;;;;11.96;60.47;96476.41;5023202;28;20029;-75
2021/10/22 10:10:04;;;;;;;10.83;1.60;;;;;;;12.01;61.07;96472.31;5024236;28;20029;-75
2021/10/22 10:12:30;;;;;;;9.07;1.73;;;;;;;11.53;60.95;96470.31;5037064;28;20017;-75
2021/10/22 10:14:56;;;;;;;7.60;1.80;;;;;;;10.49;62.54;96473.03;5035753;28;20041;-75
2021/10/22 10:17:22;;;;;;;8.13;1.93;;;;;;;11.26;60.32;96469.56;5042947;28;20049;-75
2021/10/22 10:19:50;;;;;;;11.73;2.20;;;;;;;10.68;62.62;96456.25;5039626;28;20119;-74
2021/10/22 10:22:20;;;;;;;9.27;2.00;;;;;;;11.40;61.69;96462.03;5035970;28;20142;-74
2021/10/22 10:24:51;;;;;;;7.10;1.80;;;;;;;11.18;61.59;96466.06;5018652;28;20482;-74
2021/10/22 10:27:18;;;;;;;13.17;2.73;;;;;;;11.92;60.56;96449.56;5027445;28;20117;-74
2021/10/22 10:29:50;;;;;;;9.53;1.97;;;;;;;11.83;57.51;96447.03;5035219;28;20029;-74
2021/10/22 10:32:23;;;;;;;5.90;1.43;;;;;;;11.56;57.43;96462.94;5035288;28;20127;-74
2021/10/22 10:34:51;;;;;;;11.67;2.07;;;;;;;11.10;59.83;96453.72;5033851;28;20082;-75
2021/10/22 10:37:36;;;;;;;12.20;1.77;;;;;;;10.87;57.57;96456.06;5020264;28;20032;-75
2021/10/22 10:40:32;;;;;;;9.63;2.83;;;;;;;10.91;56.56;96457.38;5012671;28;20501;-74
2021/10/22 10:43:02;;;;;;;9.87;1.73;;;;;;;11.82;56.24;96448.03;5034537;28;20056;-73
2021/10/22 10:45:29;;;;;;;9.60;2.90;;;;;;;11.48;54.83;96439.22;5034803;28;20033;-73
2021/10/22 10:48:02;;;;;;;8.80;1.60;;;;;;;11.18;56.62;96447.66;5070714;28;20394;-73
2021/10/22 10:50:33;;;;;;;8.77;1.85;;;;;;;10.78;57.02;96442.00;5040025;28;20569;-73
2021/10/22 10:53:00;;;;;;;6.57;1.70;;;;;;;10.48;57.89;96448.53;5033283;28;20029;-73
2021/10/22 10:55:42;;;;;;;14.43;1.90;;;;;;;10.55;56.36;96454.84;5032265;28;20037;-73
2021/10/22 10:58:07;;;;;;;8.03;1.33;;;;;;;10.90;56.52;96452.25;5016599;28;20041;-74
2021/10/22 11:00:34;;;;;;;6.90;1.77;;;;;;;10.79;57.23;96451.53;5042114;28;20052;-74
2021/10/22 11:03:03;;;;;;;8.00;1.40;;;;;;;11.37;56.49;96460.56;5014889;28;20033;-74
2021/10/22 11:05:48;;;;;;;8.07;1.50;;;;;;;11.06;56.54;96460.25;5032417;28;20128;-75
2021/10/22 11:08:36;;;;;;;8.67;1.60;;;;;;;10.93;55.82;96458.06;5030428;28;20072;-74
2021/10/22 11:11:17;;;;;;;11.27;2.33;;;;;;;11.17;55.12;96461.81;5021162;28;20034;-74
2021/10/22 11:14:07;;;;;;;8.80;1.87;;;;;;;11.29;55.69;96457.88;5023212;28;20074;-74
2021/10/22 11:16:44;;;;;;;5.37;1.47;;;;;;;11.39;55.07;96469.13;5047051;28;20663;-75
2021/10/22 11:19:25;;;;;;;5.67;1.50;;;;;;;11.19;55.22;96463.28;5033849;28;20491;-74
2021/10/22 11:22:01;;;;;;;6.20;1.97;;;;;;;10.72;58.90;96463.66;5029019;28;20119;-74
2021/10/22 11:24:31;;;;;;;12.03;2.10;;;;;;;11.14;55.80;96467.38;5028064;28;20060;-75
2021/10/22 11:26:56;;;;;;;6.13;1.83;;;;;;;11.05;56.09;96467.31;5032727;28;20102;-74
2021/10/22 11:29:22;;;;;;;12.23;2.10;;;;;;;11.51;57.50;96467.03;5034231;28;20503;-75
2021/10/22 11:31:51;;;;;;;7.93;1.73;;;;;;;11.82;55.52;96469.94;5026616;28;20509;-75
2021/10/22 11:34:21;;;;;;;8.80;1.23;;;;;;;12.27;55.54;96461.63;5033653;28;20032;-75
2021/10/22 11:37:01;;;;;;;9.10;1.70;;;;;;;12.67;54.27;96453.84;5027727;28;20039;-74
2021/10/22 11:39:34;;;;;;;9.60;1.90;;;;;;;12.16;52.34;96456.66;5029913;28;20552;-75